Time;durP1;ratioP1;P1;durP2;ratioP2;P2;SDS_P1;SDS_P2;PMS_P1;PMS_P2;Temp;Humidity;BMP_temperature;BMP_pressure;BME280_temperature;BME280_humidity;BME280_pressure;Samples;Min_cycle;Max_cycle;Signal;HPM_P1;HPM_P2
2023/07/08 00:55:19;;;;;;;;;;;;;;;;;;;;;
2023/07/08 04:15:51;;;;;;;;;;;;;;;22.11;73.55;99482.72;6291618;22;20374;-93
2023/07/08 04:18:23;;;;;;;;;;;;;;;22.14;72.35;99479.19;6272798;22;19925;-92
2023/07/08 04:20:53;;;;;;;;;;;;;;;22.26;72.00;99481.69;6300528;22;19954;-94
2023/07/08 04:23:19;;;;;;;;;;;;;;;22.28;71.48;99487.69;6276622;22;19898;-95
2023/07/08 04:25:49;;;;;;;;;;;;;;;22.40;71.55;99489.31;6275917;22;19895;-92
2023/07/08 04:28:16;;;;;;;;;;;;;;;22.40;70.56;99497.69;6279212;22;20409;-93
2023/07/08 04:30:45;;;;;;;;;;;;;;;22.40;69.94;99508.81;6284149;22;19918;-90
2023/07/08 04:33:15;;;;;;;;;;;;;;;22.47;69.10;99506.09;6337962;22;19929;-92
2023/07/08 04:35:43;;;;;;;;;;;;;;;22.56;69.68;99511.31;6307485;22;19919;-92
2023/07/08 04:38:17;;;;;;;;;;;;;;;22.63;69.21;99522.50;6284415;22;19930;-90
2023/07/08 04:40:48;;;;;;;;;;;;;;;22.70;69.39;99518.97;6358500;22;19964;-91
2023/07/08 04:43:15;;;;;;;;;;;;;;;22.71;70.10;99520.53;6303133;22;19918;-92
2023/07/08 04:45:44;;;;;;;;;;;;;;;22.65;70.13;99520.13;6353481;22;19925;-86
2023/07/08 04:48:14;;;;;;;;;;;;;;;22.60;69.24;99516.91;6351686;22;19968;-90
2023/07/08 04:50:49;;;;;;;;;;;;;;;22.50;69.57;99524.81;6300830;22;20020;-88
2023/07/08 04:53:18;;;;;;;;;;;;;;;22.41;69.21;99526.34;6325638;22;19894;-88
2023/07/08 04:56:05;;;;;;;;;;;;;;;22.38;69.88;99521.53;6302184;22;20232;-88
2023/07/08 04:58:31;;;;;;;;;;;;;;;22.28;71.03;99536.97;6296657;22;19918;-87
2023/07/08 05:01:00;;;;;;;;;;;;;;;22.32;71.70;99539.78;6348680;22;20002;-87
2023/07/08 05:03:26;;;;;;;;;;;;;;;22.44;72.98;99542.28;6293751;22;19997;-89
2023/07/08 05:05:52;;;;;;;;;;;;;;;22.47;71.72;99530.34;6321122;22;19926;-88
2023/07/08 05:08:18;;;;;;;;;;;;;;;22.49;72.70;99539.94;6298306;22;19950;-89
2023/07/08 05:10:44;;;;;;;;;;;;;;;22.51;70.57;99542.31;6275166;22;19922;-86
2023/07/08 05:13:10;;;;;;;;;;;;;;;22.50;71.07;99541.53;6299326;22;19938;-88
2023/07/08 05:15:36;;;;;;;;;;;;;;;22.61;72.43;99538.00;6299110;22;19901;-87
2023/07/08 05:18:03;;;;;;;;;;;;;;;22.62;71.38;99526.50;6269291;22;19942;-87
2023/07/08 05:20:30;;;;;;;;;;;;;;;22.65;70.60;99531.28;6322760;22;19922;-88
2023/07/08 05:22:56;;;;;;;;;;;;;;;22.69;70.60;99536.88;6270444;22;19993;-88
2023/07/08 05:25:23;;;;;;;;;;;;;;;22.66;70.71;99529.28;6319183;22;19941;-89
2023/07/08 05:27:49;;;;;;;;;;;;;;;22.73;71.88;99523.75;6320080;22;20006;-89
2023/07/08 05:30:18;;;;;;;;;;;;;;;22.75;71.57;99530.53;6317847;22;19964;-89
2023/07/08 05:32:58;;;;;;;;;;;;;;;22.80;70.64;99520.22;6293627;22;19926;-90
2023/07/08 05:35:25;;;;;;;;;;;;;;;22.90;71.21;99514.69;6315229;22;19919;-90
2023/07/08 05:37:56;;;;;;;;;;;;;;;22.82;68.81;99521.41;6320798;22;19964;-89
2023/07/08 05:40:25;;;;;;;;;;;;;;;22.80;70.12;99520.22;6322604;22;19926;-89
2023/07/08 05:42:52;;;;;;;;;;;;;;;22.84;69.34;99515.44;6323640;22;20348;-92
2023/07/08 05:45:39;;;;;;;;;;;;;;;22.87;68.36;99517.44;6269972;22;19926;-91
2023/07/08 05:48:06;;;;;;;;;;;;;;;22.73;68.48;99510.59;6316967;22;19946;-91
2023/07/08 05:51:02;;;;;;;;;;;;;;;22.71;69.34;99506.59;6287965;22;19937;-92
2023/07/08 05:53:29;;;;;;;;;;;;;;;22.57;69.10;99506.53;6229957;23;19919;-92
2023/07/08 05:55:55;;;;;;;;;;;;;;;22.27;70.53;99511.13;6173122;23;19920;-89
2023/07/08 05:58:20;;;;;;;;;;;;;;;22.34;70.31;99520.72;6196028;23;19950;-88
2023/07/08 06:00:46;;;;;;;;;;;;;;;22.34;68.85;99518.72;6223253;23;19919;-89
2023/07/08 06:03:12;;;;;;;;;;;;;;;22.28;68.57;99511.91;6198183;23;20328;-91
2023/07/08 06:05:38;;;;;;;;;;;;;;;22.16;68.39;99515.81;6175055;23;19926;-89
2023/07/08 06:08:08;;;;;;;;;;;;;;;22.15;69.02;99499.47;6175547;23;19964;-89
2023/07/08 06:10:41;;;;;;;;;;;;;;;22.09;68.93;99503.81;6172390;23;19927;-91
2023/07/08 06:13:06;;;;;;;;;;;;;;;22.23;69.47;99501.16;6196725;23;20055;-91
2023/07/08 06:15:32;;;;;;;;;;;;;;;22.18;68.87;99491.16;6199242;23;19915;-89
2023/07/08 06:18:02;;;;;;;;;;;;;;;22.07;69.25;99500.59;6171887;23;19942;-90
2023/07/08 06:20:28;;;;;;;;;;;;;;;22.02;70.33;99497.00;6220891;23;19945;-87
2023/07/08 06:22:54;;;;;;;;;;;;;;;21.81;70.65;99492.03;6220112;23;19935;-93
2023/07/08 06:25:20;;;;;;;;;;;;;;;21.93;71.09;99490.97;6197273;23;19924;-92
2023/07/08 06:27:45;;;;;;;;;;;;;;;21.95;71.27;99494.16;6199447;23;19954;-90
2023/07/08 06:30:12;;;;;;;;;;;;;;;22.04;71.53;99485.47;6233290;22;20068;-93
2023/07/08 06:32:38;;;;;;;;;;;;;;;21.97;71.27;99488.19;6315504;22;19930;-92
2023/07/08 06:35:04;;;;;;;;;;;;;;;22.08;71.33;99474.34;6290965;22;19924;-95
2023/07/08 06:37:30;;;;;;;;;;;;;;;22.15;70.67;99469.69;6289227;22;20369;-90
2023/07/08 06:39:56;;;;;;;;;;;;;;;22.20;70.18;99471.31;6287284;22;19919;-91
2023/07/08 06:42:22;;;;;;;;;;;;;;;22.18;69.51;99480.03;6313692;22;19915;-90
2023/07/08 06:44:57;;;;;;;;;;;;;;;22.19;68.47;99486.41;6285331;22;20431;-92
2023/07/08 06:47:23;;;;;;;;;;;;;;;22.14;69.14;99475.59;6287203;22;19968;-92
2023/07/08 06:49:49;;;;;;;;;;;;;;;22.11;68.36;99488.31;6288067;22;19923;-94
2023/07/08 06:52:16;;;;;;;;;;;;;;;22.15;68.62;99488.31;6285662;22;19918;-91
2023/07/08 06:54:41;;;;;;;;;;;;;;;22.14;68.30;99484.75;6263087;22;19994;-95
2023/07/08 06:57:08;;;;;;;;;;;;;;;22.11;67.73;99479.94;6262907;22;19947;-96
2023/07/08 06:59:34;;;;;;;;;;;;;;;22.05;67.15;99473.13;6314744;22;19915;-89
2023/07/08 07:02:00;;;;;;;;;;;;;;;21.96;67.39;99473.50;6315699;22;19930;-89
2023/07/08 07:04:32;;;;;;;;;;;;;;;22.01;67.75;99483.44;6240647;22;19923;-90
2023/07/08 07:06:58;;;;;;;;;;;;;;;22.06;67.50;99483.09;6317098;22;19986;-92
2023/07/08 07:09:26;;;;;;;;;;;;;;;22.13;67.57;99483.16;6263960;22;19926;-94
2023/07/08 07:11:53;;;;;;;;;;;;;;;22.21;66.77;99490.38;6268322;22;19925;-95
2023/07/08 07:14:19;;;;;;;;;;;;;;;22.20;66.97;99486.03;6293148;22;19922;-89
2023/07/08 07:16:47;;;;;;;;;;;;;;;22.23;67.51;99482.47;6297632;22;19899;-91
2023/07/08 07:19:13;;;;;;;;;;;;;;;22.12;66.34;99486.31;6271061;22;19899;-96
2023/07/08 07:21:38;;;;;;;;;;;;;;;22.15;66.96;99477.19;6354537;22;19925;-89
2023/07/08 07:24:06;;;;;;;;;;;;;;;22.15;67.21;99480.81;6305982;22;19898;-90
2023/07/08 07:26:37;;;;;;;;;;;;;;;22.15;67.09;99469.69;6332687;22;19922;-89
2023/07/08 07:29:11;;;;;;;;;;;;;;;22.18;66.76;99465.31;6249335;22;19918;-92
2023/07/08 07:35:23;;;;;;;;;;;;;;;22.09;66.32;99475.97;6317129;22;19930;-90
2023/07/08 07:38:14;;;;;;;;;;;;;;;22.21;66.29;99489.59;6267802;22;19919;-95
2023/07/08 07:40:40;;;;;;;;;;;;;;;22.26;65.29;99486.47;6265585;22;19914;-92
2023/07/08 07:43:07;;;;;;;;;;;;;;;22.34;65.35;99490.09;6241668;22;19975;-93
2023/07/08 07:55:17;;;;;;;;;;;;;;;22.69;64.04;99509.81;6358321;22;19923;-93
2023/07/08 07:57:51;;;;;;;;;;;;;;;22.70;64.66;99505.81;6235170;22;19957;-92
2023/07/08 08:01:24;;;;;;;;;;;;;;;;;;;;;
2023/07/08 08:07:23;;;;;;;;;;;;;;;22.74;64.39;99512.19;6315256;22;19923;-93
2023/07/08 08:10:10;;;;;;;;;;;;;;;22.69;64.51;99520.16;6199898;23;19963;-92
2023/07/08 08:12:43;;;;;;;;;;;;;;;22.68;64.94;99518.53;6175092;23;19943;-91
2023/07/08 08:18:23;;;;;;;;;;;;;;;22.54;64.11;99519.25;6322354;22;19949;-88
2023/07/08 08:21:17;;;;;;;;;;;;;;;22.50;65.48;99519.25;6301034;22;20370;-91
2023/07/08 08:27:11;;;;;;;;;;;;;;;22.16;65.60;99526.16;6311694;22;19924;-89
2023/07/08 08:33:15;;;;;;;;;;;;;;;22.13;66.69;99522.13;6303786;22;19930;-92
2023/07/08 08:36:11;;;;;;;;;;;;;;;22.10;66.09;99524.91;6277846;22;19999;-89
2023/07/08 08:38:36;;;;;;;;;;;;;;;22.19;66.67;99517.84;6300127;22;19918;-90
2023/07/08 08:41:03;;;;;;;;;;;;;;;22.13;65.93;99527.69;6271486;22;19925;-94
2023/07/08 08:43:39;;;;;;;;;;;;;;;22.09;67.01;99523.31;6311885;22;19919;-89
2023/07/08 08:46:23;;;;;;;;;;;;;;;22.19;67.42;99525.41;6293551;22;19918;-90
2023/07/08 08:48:49;;;;;;;;;;;;;;;22.28;66.10;99518.31;6294915;22;19906;-89
2023/07/08 08:55:04;;;;;;;;;;;;;;;22.21;68.39;99534.94;6325643;22;19899;-91
2023/07/08 08:58:12;;;;;;;;;;;;;;;;;;;;;
2023/07/08 09:08:18;;;;;;;;;;;;;;;21.69;69.63;99522.94;6341111;22;19923;-93
2023/07/08 09:11:09;;;;;;;;;;;;;;;21.78;70.43;99526.19;6272513;22;19930;-91
2023/07/08 09:21:32;;;;;;;;;;;;;;;21.94;71.63;99519.59;6352466;22;19925;-94
2023/07/08 09:25:00;;;;;;;;;;;;;;;22.02;69.47;99524.03;6271252;22;19922;-89
2023/07/08 09:27:26;;;;;;;;;;;;;;;22.01;67.61;99525.22;6261314;22;19929;-89
2023/07/08 09:30:00;;;;;;;;;;;;;;;22.08;66.94;99522.47;6272856;22;19926;-93
2023/07/08 09:32:29;;;;;;;;;;;;;;;22.17;68.14;99523.00;6314043;22;19940;-91
2023/07/08 09:35:14;;;;;;;;;;;;;;;22.25;65.59;99519.09;6320495;22;20191;-91
2023/07/08 09:38:50;;;;;;;;;;;;;;;22.47;65.33;99524.78;6245496;23;19919;-93
2023/07/08 09:45:12;;;;;;;;;;;;;;;22.50;64.23;99535.94;6300994;22;19929;-93
2023/07/08 09:47:45;;;;;;;;;;;;;;;22.66;63.95;99532.06;6326602;22;19925;-92
2023/07/08 09:53:21;;;;;;;;;;;;;;;22.69;63.27;99534.09;6357430;22;19930;-89
2023/07/08 09:55:51;;;;;;;;;;;;;;;22.73;61.94;99532.13;6269529;22;19922;-85
2023/07/08 09:58:34;;;;;;;;;;;;;;;22.77;62.09;99532.13;6341042;22;19919;-87
2023/07/08 10:01:11;;;;;;;;;;;;;;;22.97;61.67;99525.09;6337870;22;19918;-86
2023/07/08 10:03:38;;;;;;;;;;;;;;;23.12;61.49;99517.59;6312814;22;19943;-84
2023/07/08 10:06:14;;;;;;;;;;;;;;;23.30;60.89;99521.22;6311648;22;19923;-83
2023/07/08 10:08:43;;;;;;;;;;;;;;;23.44;59.86;99532.44;6284305;22;19918;-86
2023/07/08 10:11:25;;;;;;;;;;;;;;;23.52;59.91;99533.25;6283836;22;19918;-82
2023/07/08 10:13:53;;;;;;;;;;;;;;;23.41;59.51;99538.00;6312742;22;19918;-85
2023/07/08 10:16:33;;;;;;;;;;;;;;;23.13;58.25;99527.56;6314021;22;19922;-82
2023/07/08 10:18:59;;;;;;;;;;;;;;;22.81;59.76;99527.38;6314120;22;19918;-82
2023/07/08 10:21:45;;;;;;;;;;;;;;;22.85;60.05;99536.56;6294715;22;19942;-82
2023/07/08 10:24:32;;;;;;;;;;;;;;;22.87;60.26;99528.59;6291209;22;20508;-83
2023/07/08 10:33:35;;;;;;;;;;;;;;;23.17;58.66;99515.19;6350098;22;19923;-91
2023/07/08 10:36:16;;;;;;;;;;;;;;;23.20;59.40;99514.41;6300970;22;19922;-89
2023/07/08 10:39:02;;;;;;;;;;;;;;;23.45;61.00;99517.28;6275076;22;19972;-94
2023/07/08 10:41:59;;;;;;;;;;;;;;;23.53;57.34;99500.56;6350908;22;19919;-88
2023/07/08 10:44:30;;;;;;;;;;;;;;;23.57;55.23;99499.34;6320490;22;19930;-87
2023/07/08 10:46:56;;;;;;;;;;;;;;;23.78;56.14;99497.84;6317867;22;20021;-77
2023/07/08 10:49:40;;;;;;;;;;;;;;;24.18;55.61;99509.81;6336119;22;19918;-77
2023/07/08 10:52:16;;;;;;;;;;;;;;;24.51;54.87;99511.38;6338034;22;19918;-84
2023/07/08 10:55:00;;;;;;;;;;;;;;;24.68;54.74;99507.75;6343141;22;19918;-87
2023/07/08 10:57:53;;;;;;;;;;;;;;;24.83;53.70;99511.28;6336017;22;19989;-80
2023/07/08 11:00:24;;;;;;;;;;;;;;;24.71;52.90;99506.94;6317262;22;19950;-81
2023/07/08 11:03:09;;;;;;;;;;;;;;;24.63;53.21;99502.56;6349411;22;19963;-87
2023/07/08 11:05:46;;;;;;;;;;;;;;;24.61;51.63;99502.19;6345044;22;19926;-85
2023/07/08 11:08:24;;;;;;;;;;;;;;;24.56;51.70;99497.78;6340870;22;19922;-77
2023/07/08 11:10:56;;;;;;;;;;;;;;;24.46;52.94;99483.84;6310741;22;19918;-77
2023/07/08 11:13:23;;;;;;;;;;;;;;;24.53;51.24;99481.03;6337326;22;19918;-80
2023/07/08 11:15:50;;;;;;;;;;;;;;;24.67;53.09;99496.94;6337610;22;19918;-79
2023/07/08 11:18:19;;;;;;;;;;;;;;;24.90;49.83;99500.09;6340156;22;19925;-81
2023/07/08 11:21:11;;;;;;;;;;;;;;;25.17;50.91;99494.78;6308694;22;19922;-81
2023/07/08 11:23:37;;;;;;;;;;;;;;;24.98;50.89;99496.03;6331972;22;19925;-80
2023/07/08 11:26:23;;;;;;;;;;;;;;;24.71;50.78;99489.38;6339289;22;19918;-91
2023/07/08 11:28:51;;;;;;;;;;;;;;;24.63;49.98;99493.38;6344924;22;19925;-89
2023/07/08 11:31:17;;;;;;;;;;;;;;;24.85;51.40;99484.50;6339702;22;20001;-91
2023/07/08 11:33:50;;;;;;;;;;;;;;;25.11;48.98;99501.19;6286261;22;19963;-86
2023/07/08 11:36:16;;;;;;;;;;;;;;;25.11;49.63;99501.19;6250368;23;19954;-82
2023/07/08 11:39:08;;;;;;;;;;;;;;;25.04;47.35;99497.22;6246219;23;20270;-85
2023/07/08 11:41:35;;;;;;;;;;;;;;;24.85;47.71;99494.91;6193068;23;19919;-89
2023/07/08 11:44:05;;;;;;;;;;;;;;;24.82;48.03;99498.50;6199865;23;20146;-81
2023/07/08 11:46:32;;;;;;;;;;;;;;;24.56;49.27;99483.81;6242667;23;19920;-86
2023/07/08 11:49:06;;;;;;;;;;;;;;;24.81;48.82;99486.53;6238787;23;19931;-81
2023/07/08 11:51:36;;;;;;;;;;;;;;;25.28;47.95;99469.56;6238536;23;19919;-81
2023/07/08 11:54:12;;;;;;;;;;;;;;;25.74;47.90;99476.84;6237778;23;20289;-81
2023/07/08 11:57:01;;;;;;;;;;;;;;;25.81;46.09;99462.81;6213147;23;20341;-81
2023/07/08 11:59:36;;;;;;;;;;;;;;;25.57;47.60;99469.38;6239852;23;19924;-85
2023/07/08 12:02:04;;;;;;;;;;;;;;;25.33;47.27;99451.53;6191975;23;19919;-84
2023/07/08 12:04:32;;;;;;;;;;;;;;;25.75;48.35;99468.00;6169663;23;19919;-85
2023/07/08 12:07:17;;;;;;;;;;;;;;;25.78;48.80;99472.00;6194821;23;19992;-85
2023/07/08 12:09:59;;;;;;;;;;;;;;;25.70;47.07;99476.88;6244977;23;19998;-88
2023/07/08 12:12:34;;;;;;;;;;;;;;;25.60;47.38;99476.94;6246656;23;19942;-94
2023/07/08 12:15:12;;;;;;;;;;;;;;;25.52;45.74;99482.56;6288037;22;19991;-87
2023/07/08 12:17:39;;;;;;;;;;;;;;;25.32;46.51;99478.72;6288155;22;19925;-84
2023/07/08 12:20:07;;;;;;;;;;;;;;;25.26;46.48;99477.53;6312620;22;19894;-92
2023/07/08 12:22:33;;;;;;;;;;;;;;;25.29;47.28;99477.53;6339155;22;20283;-81
2023/07/08 12:25:05;;;;;;;;;;;;;;;25.36;47.48;99471.09;6338290;22;19921;-96
2023/07/08 12:27:33;;;;;;;;;;;;;;;25.51;48.26;99474.59;6315779;22;19925;-82
2023/07/08 12:29:58;;;;;;;;;;;;;;;25.67;46.31;99472.09;6316727;22;20340;-85
2023/07/08 12:32:28;;;;;;;;;;;;;;;25.89;45.87;99474.72;6315082;22;19924;-86
2023/07/08 12:34:54;;;;;;;;;;;;;;;25.98;44.77;99475.06;6290355;22;19918;-90
2023/07/08 12:37:22;;;;;;;;;;;;;;;25.94;44.03;99477.91;6344865;22;19918;-92
2023/07/08 12:39:59;;;;;;;;;;;;;;;25.85;44.91;99469.16;6315627;22;19918;-85
2023/07/08 12:42:26;;;;;;;;;;;;;;;26.03;45.16;99466.22;6287595;22;20007;-83
2023/07/08 12:44:54;;;;;;;;;;;;;;;25.93;44.16;99475.53;6341145;22;20298;-84
2023/07/08 12:47:21;;;;;;;;;;;;;;;25.83;43.78;99471.59;6342533;22;20365;-87
2023/07/08 12:49:47;;;;;;;;;;;;;;;25.65;41.83;99470.91;6344022;22;19918;-95
2023/07/08 12:52:22;;;;;;;;;;;;;;;25.64;42.54;99467.31;6346206;22;19975;-87
2023/07/08 12:54:50;;;;;;;;;;;;;;;25.92;43.80;99473.91;6292502;22;20406;-84
2023/07/08 12:57:17;;;;;;;;;;;;;;;26.28;41.76;99485.59;6348024;22;19923;-86
2023/07/08 12:59:43;;;;;;;;;;;;;;;26.31;39.71;99481.16;6314251;22;20268;-86
2023/07/08 13:02:17;;;;;;;;;;;;;;;26.20;40.31;99476.47;6319051;22;19926;-90
2023/07/08 13:04:44;;;;;;;;;;;;;;;25.83;40.56;99484.78;6337015;22;19918;-79
2023/07/08 13:07:22;;;;;;;;;;;;;;;25.89;41.80;99483.13;6335716;22;19918;-83
2023/07/08 13:09:48;;;;;;;;;;;;;;;26.23;41.33;99478.44;6336042;22;19964;-81
2023/07/08 13:12:22;;;;;;;;;;;;;;;26.47;41.99;99484.19;6307658;22;19975;-85
2023/07/08 13:14:49;;;;;;;;;;;;;;;26.48;42.72;99492.22;6335104;22;19950;-84
2023/07/08 13:17:16;;;;;;;;;;;;;;;26.33;39.72;99493.56;6335584;22;19975;-82
2023/07/08 13:19:42;;;;;;;;;;;;;;;26.15;39.77;99496.50;6308162;22;19918;-85
2023/07/08 13:22:19;;;;;;;;;;;;;;;26.10;39.38;99490.56;6309863;22;19946;-85
2023/07/08 13:24:45;;;;;;;;;;;;;;;26.15;39.55;99485.31;6259556;22;19919;-83
2023/07/08 13:27:30;;;;;;;;;;;;;;;25.99;39.64;99491.47;6337752;22;19919;-82
2023/07/08 13:30:04;;;;;;;;;;;;;;;25.68;39.45;99490.47;6337152;22;19957;-83
2023/07/08 13:32:31;;;;;;;;;;;;;;;25.34;41.10;99495.91;6335405;22;19918;-82
2023/07/08 13:34:56;;;;;;;;;;;;;;;25.49;42.39;99483.41;6307674;22;20007;-83
2023/07/08 13:37:25;;;;;;;;;;;;;;;25.63;41.74;99481.69;6334733;22;20331;-83
2023/07/08 13:39:52;;;;;;;;;;;;;;;25.72;41.77;99479.25;6336012;22;19918;-82
2023/07/08 13:42:18;;;;;;;;;;;;;;;25.79;41.63;99481.97;6333645;22;19968;-81
2023/07/08 13:44:45;;;;;;;;;;;;;;;25.47;41.91;99482.22;6336372;22;19938;-82
2023/07/08 13:47:23;;;;;;;;;;;;;;;25.38;40.78;99471.47;6336593;22;20462;-83
2023/07/08 13:49:53;;;;;;;;;;;;;;;25.40;41.44;99468.28;6336140;22;19918;-82
2023/07/08 13:52:21;;;;;;;;;;;;;;;25.52;43.27;99465.78;6336530;22;19918;-83
2023/07/08 13:54:55;;;;;;;;;;;;;;;25.61;42.65;99472.94;6309638;22;19919;-82
2023/07/08 13:57:22;;;;;;;;;;;;;;;25.64;42.77;99477.72;6336193;22;20340;-82
2023/07/08 13:59:48;;;;;;;;;;;;;;;25.72;43.43;99484.84;6336019;22;19972;-82
2023/07/08 14:02:21;;;;;;;;;;;;;;;25.71;43.99;99477.66;6335821;22;20340;-84
2023/07/08 14:04:49;;;;;;;;;;;;;;;25.72;42.06;99473.63;6336004;22;19915;-82
2023/07/08 14:07:22;;;;;;;;;;;;;;;25.55;42.65;99467.75;6337700;22;19945;-83
2023/07/08 14:09:48;;;;;;;;;;;;;;;25.51;42.72;99461.41;6338523;22;19919;-85
2023/07/08 14:12:14;;;;;;;;;;;;;;;25.42;43.87;99455.47;6338151;22;19925;-82
2023/07/08 14:14:39;;;;;;;;;;;;;;;25.25;44.11;99445.19;6338917;22;20355;-84
2023/07/08 14:17:08;;;;;;;;;;;;;;;25.35;44.61;99447.09;6336980;22;19997;-81
2023/07/08 14:19:34;;;;;;;;;;;;;;;25.53;45.04;99445.00;6307026;22;19923;-84
2023/07/08 14:22:06;;;;;;;;;;;;;;;25.36;43.32;99434.69;6334989;22;20370;-80
2023/07/08 14:24:34;;;;;;;;;;;;;;;25.26;44.65;99429.97;6331569;22;20004;-79
2023/07/08 14:27:02;;;;;;;;;;;;;;;25.34;44.58;99430.75;6333321;22;19956;-82
2023/07/08 14:29:28;;;;;;;;;;;;;;;25.37;44.98;99427.13;6340778;22;19914;-85
2023/07/08 14:31:53;;;;;;;;;;;;;;;25.75;44.02;99423.19;6336491;22;20367;-82
2023/07/08 14:34:24;;;;;;;;;;;;;;;25.99;43.20;99432.63;6336961;22;19914;-83
2023/07/08 14:36:50;;;;;;;;;;;;;;;26.17;43.26;99415.63;6307177;22;20360;-83
2023/07/08 14:39:24;;;;;;;;;;;;;;;26.24;43.19;99417.56;6336262;22;19929;-87
2023/07/08 14:41:50;;;;;;;;;;;;;;;26.32;43.21;99421.09;6307202;22;19915;-83
2023/07/08 14:44:21;;;;;;;;;;;;;;;26.37;42.71;99415.81;6282226;22;19925;-81
2023/07/08 14:46:47;;;;;;;;;;;;;;;26.39;43.66;99406.97;6308059;22;19914;-84
2023/07/08 14:49:21;;;;;;;;;;;;;;;26.45;42.45;99417.31;6339044;22;20266;-84
2023/07/08 14:51:47;;;;;;;;;;;;;;;26.34;43.40;99413.84;6339378;22;19918;-83
2023/07/08 14:54:14;;;;;;;;;;;;;;;26.09;44.06;99404.91;6312123;22;19980;-81
2023/07/08 14:56:40;;;;;;;;;;;;;;;25.87;44.15;99412.75;6283030;22;20401;-80
2023/07/08 14:59:11;;;;;;;;;;;;;;;25.44;43.79;99413.88;6307964;22;19949;-81
2023/07/08 15:01:39;;;;;;;;;;;;;;;25.27;44.51;99407.19;6338035;22;19926;-82
2023/07/08 15:04:09;;;;;;;;;;;;;;;25.14;45.23;99416.50;6313075;22;19914;-83
2023/07/08 15:06:36;;;;;;;;;;;;;;;25.25;45.88;99420.00;6289081;22;19919;-81
2023/07/08 15:09:03;;;;;;;;;;;;;;;25.37;43.87;99422.31;6282457;22;19922;-82
2023/07/08 15:11:29;;;;;;;;;;;;;;;25.73;42.33;99422.84;6337101;22;19942;-81
2023/07/08 15:13:55;;;;;;;;;;;;;;;25.90;41.18;99428.72;6308115;22;19964;-84
2023/07/08 15:16:21;;;;;;;;;;;;;;;26.10;41.53;99431.75;6335559;22;19936;-82
2023/07/08 15:18:47;;;;;;;;;;;;;;;26.22;42.09;99420.00;6283854;22;19914;-85
2023/07/08 15:21:13;;;;;;;;;;;;;;;26.40;41.44;99431.81;6306302;22;19991;-81
2023/07/08 15:23:39;;;;;;;;;;;;;;;26.52;40.43;99429.69;6335073;22;19915;-88
2023/07/08 15:26:06;;;;;;;;;;;;;;;26.60;41.11;99428.41;6282418;22;20001;-82
2023/07/08 15:28:47;;;;;;;;;;;;;;;26.79;40.00;99432.56;6334638;22;19971;-84
2023/07/08 15:31:15;;;;;;;;;;;;;;;26.98;40.16;99434.72;6337858;22;20332;-82
2023/07/08 15:33:41;;;;;;;;;;;;;;;26.92;39.29;99427.97;6337034;22;19918;-83
2023/07/08 15:36:11;;;;;;;;;;;;;;;26.69;39.59;99428.72;6333618;22;19921;-81
2023/07/08 15:38:37;;;;;;;;;;;;;;;26.25;38.42;99421.97;6332658;22;19925;-83
2023/07/08 15:41:03;;;;;;;;;;;;;;;25.97;38.65;99429.44;6332083;22;19915;-84
2023/07/08 15:43:29;;;;;;;;;;;;;;;25.71;39.75;99424.47;6329782;22;19997;-81
2023/07/08 15:45:55;;;;;;;;;;;;;;;25.66;39.24;99428.50;6331462;22;20691;-82
2023/07/08 15:48:21;;;;;;;;;;;;;;;25.61;39.94;99434.53;6330915;22;19949;-81
2023/07/08 15:50:47;;;;;;;;;;;;;;;25.55;40.29;99431.38;6329803;22;19919;-85
2023/07/08 15:53:16;;;;;;;;;;;;;;;25.76;40.01;99429.59;6331077;22;20393;-84
2023/07/08 15:55:46;;;;;;;;;;;;;;;25.93;38.95;99428.69;6331488;22;20927;-85
2023/07/08 15:58:21;;;;;;;;;;;;;;;26.10;39.28;99426.94;6332328;22;19919;-84
2023/07/08 16:00:47;;;;;;;;;;;;;;;26.20;38.54;99428.03;6333479;22;19960;-86
2023/07/08 16:03:19;;;;;;;;;;;;;;;26.01;38.49;99423.81;6277590;22;19925;-83
2023/07/08 16:05:44;;;;;;;;;;;;;;;25.88;39.69;99417.91;6335895;22;20360;-85
2023/07/08 16:08:10;;;;;;;;;;;;;;;25.73;39.65;99411.63;6330159;22;19925;-85
2023/07/08 16:10:38;;;;;;;;;;;;;;;25.63;38.97;99414.50;6333402;22;19918;-86
2023/07/08 16:13:04;;;;;;;;;;;;;;;25.55;39.24;99408.97;6278029;22;20417;-85
2023/07/08 16:15:33;;;;;;;;;;;;;;;25.49;39.11;99407.03;6303744;22;19972;-83
2023/07/08 16:17:59;;;;;;;;;;;;;;;25.36;39.73;99415.13;6331298;22;19919;-84
2023/07/08 16:20:28;;;;;;;;;;;;;;;25.27;40.28;99409.22;6330541;22;19922;-82
2023/07/08 16:22:55;;;;;;;;;;;;;;;25.22;40.82;99413.22;6331004;22;19918;-83
2023/07/08 16:25:29;;;;;;;;;;;;;;;25.03;40.38;99414.53;6328414;22;20047;-82
2023/07/08 16:27:55;;;;;;;;;;;;;;;24.99;41.47;99405.34;6300862;22;19918;-83
2023/07/08 16:30:21;;;;;;;;;;;;;;;24.88;40.88;99407.41;6326742;22;19925;-81
2023/07/08 16:32:48;;;;;;;;;;;;;;;24.79;41.52;99404.25;6299630;22;19918;-83
2023/07/08 16:35:15;;;;;;;;;;;;;;;24.62;41.08;99405.94;6324845;22;19918;-82
2023/07/08 16:37:42;;;;;;;;;;;;;;;24.47;41.40;99401.59;6272914;22;19914;-83
2023/07/08 16:40:25;;;;;;;;;;;;;;;24.42;41.95;99411.19;6325922;22;19922;-83
2023/07/08 16:42:55;;;;;;;;;;;;;;;24.39;43.90;99406.38;6324750;22;19919;-82
2023/07/08 16:45:22;;;;;;;;;;;;;;;24.31;43.97;99411.19;6298703;22;20283;-83
2023/07/08 16:47:48;;;;;;;;;;;;;;;24.22;44.23;99412.81;6298562;22;20001;-83
2023/07/08 16:50:15;;;;;;;;;;;;;;;24.12;44.94;99409.66;6325855;22;19918;-81
2023/07/08 16:52:41;;;;;;;;;;;;;;;24.05;44.01;99412.47;6325300;22;19918;-81
2023/07/08 16:55:17;;;;;;;;;;;;;;;24.03;43.53;99428.00;6325422;22;19918;-81
2023/07/08 16:57:43;;;;;;;;;;;;;;;24.06;44.67;99418.84;6329692;22;19919;-79
2023/07/08 17:00:11;;;;;;;;;;;;;;;24.05;45.36;99423.63;6327964;22;19997;-82
2023/07/08 17:02:37;;;;;;;;;;;;;;;23.90;44.33;99430.41;6327641;22;19919;-80
2023/07/08 17:05:11;;;;;;;;;;;;;;;23.87;44.95;99425.63;6275215;22;19944;-83
2023/07/08 17:07:38;;;;;;;;;;;;;;;23.83;44.40;99427.63;6325019;22;20426;-82
2023/07/08 17:10:04;;;;;;;;;;;;;;;23.82;44.01;99428.84;6324895;22;19919;-82
2023/07/08 17:12:29;;;;;;;;;;;;;;;23.78;44.78;99423.25;6324183;22;20797;-82
2023/07/08 17:14:57;;;;;;;;;;;;;;;23.71;44.70;99426.06;6299349;22;19919;-83
2023/07/08 17:17:22;;;;;;;;;;;;;;;23.68;44.99;99430.44;6323669;22;19922;-81
2023/07/08 17:19:48;;;;;;;;;;;;;;;23.62;44.41;99432.00;6295735;22;19919;-82
2023/07/08 17:22:14;;;;;;;;;;;;;;;23.55;44.97;99425.63;6324202;22;19919;-81
2023/07/08 17:24:39;;;;;;;;;;;;;;;23.47;45.75;99424.81;6324345;22;19926;-81
2023/07/08 17:27:05;;;;;;;;;;;;;;;23.42;46.36;99430.78;6322312;22;19922;-86
2023/07/08 17:29:32;;;;;;;;;;;;;;;23.35;46.06;99420.44;6325156;22;19971;-81
2023/07/08 17:31:58;;;;;;;;;;;;;;;23.33;46.50;99430.38;6324534;22;20005;-81
2023/07/08 17:34:26;;;;;;;;;;;;;;;23.30;46.46;99425.59;6323997;22;20034;-82
2023/07/08 17:36:53;;;;;;;;;;;;;;;23.16;46.46;99427.16;6326027;22;20268;-80
2023/07/08 17:39:19;;;;;;;;;;;;;;;23.13;47.60;99425.16;6324630;22;19972;-80
2023/07/08 17:41:48;;;;;;;;;;;;;;;23.03;49.06;99422.34;6322913;22;19993;-80
2023/07/08 17:44:16;;;;;;;;;;;;;;;22.90;48.90;99424.66;6298291;22;19918;-80
2023/07/08 17:46:42;;;;;;;;;;;;;;;22.84;51.47;99431.81;6326272;22;19918;-82
2023/07/08 17:49:11;;;;;;;;;;;;;;;22.72;51.91;99432.97;6322871;22;20413;-84
2023/07/08 17:51:38;;;;;;;;;;;;;;;22.57;52.08;99434.91;6295247;22;20405;-85
2023/07/08 17:54:11;;;;;;;;;;;;;;;22.46;53.88;99436.84;6294350;22;19927;-81
2023/07/08 17:56:39;;;;;;;;;;;;;;;22.39;53.75;99439.59;6322872;22;19919;-81
2023/07/08 17:59:06;;;;;;;;;;;;;;;22.30;54.75;99439.94;6304558;22;19994;-83
2023/07/08 18:01:33;;;;;;;;;;;;;;;22.19;55.01;99434.31;6336265;22;19919;-81
2023/07/08 18:03:59;;;;;;;;;;;;;;;22.11;55.25;99440.19;6295772;22;19919;-81
2023/07/08 18:06:24;;;;;;;;;;;;;;;22.02;55.93;99430.19;6336563;22;19926;-82
2023/07/08 18:08:52;;;;;;;;;;;;;;;21.94;56.15;99438.88;6336311;22;19918;-83
2023/07/08 18:11:20;;;;;;;;;;;;;;;21.87;57.53;99436.03;6336406;22;19918;-83
2023/07/08 18:13:47;;;;;;;;;;;;;;;21.78;58.55;99428.00;6336797;22;20625;-80
2023/07/08 18:16:14;;;;;;;;;;;;;;;21.69;58.64;99431.13;6339716;22;20294;-83
2023/07/08 18:18:40;;;;;;;;;;;;;;;21.61;57.24;99426.69;6336641;22;20005;-80
2023/07/08 18:21:13;;;;;;;;;;;;;;;21.56;58.98;99421.50;6335848;22;20622;-81